Time;durP1;ratioP1;P1;durP2;ratioP2;P2;SDS_P1;SDS_P2;PMS_P1;PMS_P2;Temp;Humidity;BMP_temperature;BMP_pressure;BME280_temperature;BME280_humidity;BME280_pressure;Samples;Min_cycle;Max_cycle;Signal;HPM_P1;HPM_P2
2023/06/24 00:01:26;;;;;;;7.88;4.18;;;19.60;99.90;;;;;;4963536;28;20434;-33
2023/06/24 00:03:53;;;;;;;5.25;3.55;;;19.50;99.90;;;;;;4966237;28;20058;-33
2023/06/24 00:06:25;;;;;;;5.47;3.85;;;19.50;99.90;;;;;;4961155;28;20050;-34
2023/06/24 00:08:52;;;;;;;5.88;3.55;;;19.50;99.90;;;;;;4964688;28;20055;-33
2023/06/24 00:11:17;;;;;;;5.47;3.35;;;19.50;99.90;;;;;;4963879;28;20568;-33
2023/06/24 00:13:44;;;;;;;6.35;3.72;;;19.40;99.90;;;;;;4966278;28;20054;-33
2023/06/24 00:16:10;;;;;;;4.90;3.58;;;19.30;99.90;;;;;;4962886;28;20051;-33
2023/06/24 00:18:40;;;;;;;7.18;4.53;;;19.30;99.90;;;;;;4968707;28;20058;-34
2023/06/24 00:21:06;;;;;;;7.95;4.10;;;19.20;99.90;;;;;;4961360;28;20137;-33
2023/06/24 00:23:34;;;;;;;11.10;4.40;;;19.20;99.90;;;;;;4966190;28;20134;-33
2023/06/24 00:26:00;;;;;;;5.53;3.70;;;19.10;99.90;;;;;;4951154;28;20579;-34
2023/06/24 00:28:26;;;;;;;8.02;4.78;;;19.10;99.90;;;;;;4969234;28;20445;-33
2023/06/24 00:30:53;;;;;;;7.82;4.32;;;19.10;99.90;;;;;;4966304;28;20501;-34
2023/06/24 00:33:20;;;;;;;6.55;4.43;;;19.00;99.90;;;;;;4965040;28;20056;-33
2023/06/24 00:35:46;;;;;;;6.63;4.35;;;19.00;99.90;;;;;;4962781;28;20054;-34
2023/06/24 00:38:12;;;;;;;8.75;4.10;;;18.90;99.90;;;;;;4964880;28;20102;-33
2023/06/24 00:40:39;;;;;;;6.32;4.32;;;18.90;99.90;;;;;;4959559;28;20070;-34
2023/06/24 00:43:05;;;;;;;6.57;4.55;;;18.90;99.90;;;;;;4964640;28;20497;-33
2023/06/24 00:45:31;;;;;;;5.65;3.92;;;18.80;99.90;;;;;;4962624;28;20054;-33
2023/06/24 00:48:00;;;;;;;8.65;3.70;;;18.80;99.90;;;;;;4962626;28;20046;-33
2023/06/24 00:50:26;;;;;;;6.38;4.45;;;18.70;99.90;;;;;;4963045;28;20081;-34
2023/06/24 00:52:52;;;;;;;9.10;4.97;;;18.70;99.90;;;;;;4965182;28;20402;-33
2023/06/24 00:55:20;;;;;;;6.40;4.57;;;18.70;99.90;;;;;;4961294;28;20105;-33
2023/06/24 00:57:51;;;;;;;6.88;4.40;;;18.60;99.90;;;;;;4964859;28;20069;-33
2023/06/24 01:00:19;;;;;;;6.38;4.25;;;18.60;99.90;;;;;;4964239;28;20078;-34
2023/06/24 01:02:48;;;;;;;6.05;4.00;;;18.50;99.90;;;;;;4954895;28;20062;-33
2023/06/24 01:05:14;;;;;;;6.32;4.43;;;18.50;99.90;;;;;;4963484;28;20046;-35
2023/06/24 01:07:40;;;;;;;6.47;4.40;;;18.40;99.90;;;;;;4967589;28;20069;-35
2023/06/24 01:10:08;;;;;;;8.57;4.50;;;18.40;99.90;;;;;;4963817;28;20072;-35
2023/06/24 01:12:39;;;;;;;7.97;4.60;;;18.40;99.90;;;;;;4961099;28;20133;-35
2023/06/24 01:15:07;;;;;;;9.70;4.53;;;18.30;99.90;;;;;;4966942;28;20125;-35
2023/06/24 01:17:54;;;;;;;6.88;5.03;;;18.30;99.90;;;;;;4965761;28;20054;-35
2023/06/24 01:20:20;;;;;;;5.88;4.10;;;18.30;99.90;;;;;;4962401;28;20059;-35
2023/06/24 01:23:07;;;;;;;5.90;4.38;;;18.20;99.90;;;;;;4966283;28;20113;-35
2023/06/24 01:25:54;;;;;;;5.30;3.45;;;18.20;99.90;;;;;;4962437;28;20059;-35
2023/06/24 01:28:44;;;;;;;6.03;4.25;;;18.20;99.90;;;;;;4968397;28;20050;-35
2023/06/24 01:31:48;;;;;;;6.63;4.60;;;18.20;99.90;;;;;;4964517;28;20050;-35
2023/06/24 01:34:26;;;;;;;7.60;4.97;;;18.10;99.90;;;;;;4967173;28;20038;-35
2023/06/24 01:37:05;;;;;;;6.90;4.90;;;18.10;99.90;;;;;;4965316;28;20090;-35
2023/06/24 01:39:35;;;;;;;7.07;4.78;;;18.10;99.90;;;;;;4961194;28;20177;-35
2023/06/24 01:42:08;;;;;;;7.30;4.88;;;18.00;99.90;;;;;;4962849;28;20394;-35
2023/06/24 01:44:35;;;;;;;9.00;5.00;;;18.00;99.90;;;;;;4962028;28;20055;-35
2023/06/24 01:47:04;;;;;;;6.93;4.78;;;18.00;99.90;;;;;;4967889;28;20054;-35
2023/06/24 01:49:33;;;;;;;7.93;5.55;;;18.00;99.90;;;;;;4964785;28;20154;-35
2023/06/24 01:52:02;;;;;;;7.95;4.70;;;17.90;99.90;;;;;;4962947;28;20145;-35
2023/06/24 01:54:30;;;;;;;7.75;4.68;;;17.90;99.90;;;;;;4962100;28;20097;-35
2023/06/24 01:56:59;;;;;;;8.50;5.30;;;17.90;99.90;;;;;;4965809;28;20320;-35
2023/06/24 01:59:29;;;;;;;7.85;5.38;;;17.90;99.90;;;;;;4951345;28;21566;-35
2023/06/24 02:01:57;;;;;;;9.45;5.50;;;17.80;99.90;;;;;;4964634;28;21949;-35
2023/06/24 02:04:24;;;;;;;7.93;5.63;;;17.80;99.90;;;;;;4968635;28;20488;-35
2023/06/24 02:06:51;;;;;;;7.32;4.80;;;17.80;99.90;;;;;;4968400;28;20063;-35
2023/06/24 02:09:19;;;;;;;7.35;5.05;;;17.80;99.90;;;;;;4966384;28;20069;-35
2023/06/24 02:11:46;;;;;;;9.15;5.55;;;17.80;99.90;;;;;;4968238;28;20051;-35
2023/06/24 02:14:14;;;;;;;8.82;5.60;;;17.70;99.90;;;;;;4968575;28;20065;-35
2023/06/24 02:16:42;;;;;;;9.50;5.90;;;17.70;99.90;;;;;;4964094;28;20138;-35
2023/06/24 02:19:09;;;;;;;7.05;4.60;;;17.70;99.90;;;;;;4959300;28;20061;-35
2023/06/24 02:21:36;;;;;;;10.70;6.28;;;17.60;99.90;;;;;;4965099;28;20062;-35
2023/06/24 02:24:03;;;;;;;8.75;5.38;;;17.60;99.90;;;;;;4967302;28;20058;-35
2023/06/24 02:26:28;;;;;;;8.52;5.30;;;17.60;99.90;;;;;;4959466;28;20038;-35
2023/06/24 02:28:55;;;;;;;8.57;5.72;;;17.60;99.90;;;;;;4963830;28;20177;-35
2023/06/24 02:31:21;;;;;;;6.68;4.78;;;17.60;99.90;;;;;;4944164;28;20089;-35
2023/06/24 02:33:47;;;;;;;8.95;5.40;;;17.60;99.90;;;;;;4965068;28;20074;-35
2023/06/24 02:36:12;;;;;;;8.07;5.53;;;17.60;99.90;;;;;;4965568;28;20126;-35
2023/06/24 02:38:38;;;;;;;7.55;5.47;;;17.60;99.90;;;;;;4963673;28;20566;-35
2023/06/24 02:41:04;;;;;;;8.98;5.25;;;17.60;99.90;;;;;;4965680;28;20058;-35
2023/06/24 02:43:31;;;;;;;7.95;5.38;;;17.60;99.90;;;;;;4965492;28;20054;-35
2023/06/24 02:46:01;;;;;;;8.45;6.05;;;17.60;99.90;;;;;;4963072;28;20413;-35
2023/06/24 02:48:29;;;;;;;6.90;4.60;;;17.60;99.90;;;;;;4962724;28;20080;-35
2023/06/24 02:50:56;;;;;;;9.63;5.97;;;17.60;99.90;;;;;;4963187;28;20137;-35
2023/06/24 02:53:21;;;;;;;7.50;5.32;;;17.60;99.90;;;;;;4967512;28;20054;-35
2023/06/24 02:55:48;;;;;;;7.80;4.93;;;17.60;99.90;;;;;;4969115;28;20078;-35
2023/06/24 02:58:14;;;;;;;8.63;5.50;;;17.50;99.90;;;;;;4962404;28;20086;-35
2023/06/24 03:00:40;;;;;;;8.50;4.88;;;17.50;99.90;;;;;;4964708;28;20160;-36
2023/06/24 03:03:07;;;;;;;9.27;5.45;;;17.50;99.90;;;;;;4967328;28;20461;-35
2023/06/24 03:05:33;;;;;;;8.13;4.90;;;17.50;99.90;;;;;;4964796;28;20046;-34
2023/06/24 03:07:58;;;;;;;13.05;5.53;;;17.50;99.90;;;;;;4963186;28;20086;-34
2023/06/24 03:10:25;;;;;;;6.85;4.75;;;17.40;99.90;;;;;;4959818;28;20057;-34
2023/06/24 03:12:51;;;;;;;8.02;5.50;;;17.40;99.90;;;;;;4965963;28;20046;-34
2023/06/24 03:15:17;;;;;;;9.20;4.80;;;17.40;99.90;;;;;;4964749;28;20555;-34
2023/06/24 03:17:43;;;;;;;7.88;5.43;;;17.40;99.90;;;;;;4965471;28;20062;-35
2023/06/24 03:20:10;;;;;;;10.05;5.72;;;17.40;99.90;;;;;;4966058;28;20124;-35
2023/06/24 03:22:36;;;;;;;6.45;4.43;;;17.40;99.90;;;;;;4951896;28;20043;-35
2023/06/24 03:25:02;;;;;;;9.63;6.10;;;17.30;99.90;;;;;;4966499;28;20405;-35
2023/06/24 03:27:27;;;;;;;9.40;5.85;;;17.30;99.90;;;;;;4966428;28;20055;-35
2023/06/24 03:29:53;;;;;;;8.68;5.70;;;17.30;99.90;;;;;;4947537;28;20038;-35
2023/06/24 03:32:19;;;;;;;10.75;6.05;;;17.30;99.90;;;;;;4966191;28;20047;-35
2023/06/24 03:34:44;;;;;;;9.45;5.53;;;17.30;99.90;;;;;;4960054;28;20486;-35
2023/06/24 03:37:10;;;;;;;9.32;5.78;;;17.30;99.90;;;;;;4960278;28;20059;-35
2023/06/24 03:39:36;;;;;;;9.77;6.00;;;17.30;99.90;;;;;;4962801;28;20047;-35
2023/06/24 03:42:02;;;;;;;9.18;5.90;;;17.30;99.90;;;;;;4967432;28;20128;-35
2023/06/24 03:44:27;;;;;;;12.70;6.38;;;17.30;99.90;;;;;;4957652;28;20479;-35
2023/06/24 03:46:53;;;;;;;9.50;5.97;;;17.40;99.90;;;;;;4966603;28;20055;-35
2023/06/24 03:49:19;;;;;;;11.10;6.05;;;17.40;99.90;;;;;;4964771;28;20393;-35
2023/06/24 03:51:44;;;;;;;10.63;5.93;;;17.30;99.90;;;;;;4967896;28;20058;-35
2023/06/24 03:54:10;;;;;;;7.82;5.60;;;17.30;99.90;;;;;;4967239;28;20130;-35
2023/06/24 03:56:36;;;;;;;10.50;6.20;;;17.30;99.90;;;;;;4966958;28;20051;-34
2023/06/24 03:59:02;;;;;;;9.60;6.32;;;17.40;99.90;;;;;;4964617;28;20055;-35
2023/06/24 04:01:31;;;;;;;10.05;5.97;;;17.40;99.90;;;;;;4947818;28;20102;-35
2023/06/24 04:04:00;;;;;;;9.30;5.38;;;17.30;99.90;;;;;;4961723;28;20093;-35
2023/06/24 04:06:26;;;;;;;9.45;6.18;;;17.30;99.90;;;;;;4961489;28;20645;-35
2023/06/24 04:08:51;;;;;;;8.50;5.47;;;17.40;99.90;;;;;;4961804;28;20070;-34
2023/06/24 04:11:18;;;;;;;10.32;6.57;;;17.40;99.90;;;;;;4943716;28;20059;-34
2023/06/24 04:13:45;;;;;;;10.50;5.82;;;17.30;99.90;;;;;;4946011;28;20051;-33
2023/06/24 04:16:10;;;;;;;9.55;6.63;;;17.30;99.90;;;;;;4942859;28;20061;-34
2023/06/24 04:18:39;;;;;;;10.25;6.28;;;17.30;99.90;;;;;;4940870;28;20354;-34
2023/06/24 04:21:06;;;;;;;11.35;6.80;;;17.20;99.90;;;;;;4948184;28;20043;-34
2023/06/24 04:23:32;;;;;;;10.82;6.95;;;17.30;99.90;;;;;;4945087;28;20051;-34
2023/06/24 04:25:58;;;;;;;8.80;6.47;;;17.30;99.90;;;;;;4942774;28;20414;-34
2023/06/24 04:28:23;;;;;;;10.50;6.53;;;17.30;99.90;;;;;;4944024;28;20144;-34
2023/06/24 04:30:49;;;;;;;8.40;5.60;;;17.30;99.90;;;;;;4947461;28;20067;-34
2023/06/24 04:33:15;;;;;;;8.80;5.78;;;17.40;99.90;;;;;;4944701;28;20039;-34
2023/06/24 04:35:40;;;;;;;9.52;5.95;;;17.50;99.90;;;;;;4924841;28;20047;-34
2023/06/24 04:38:06;;;;;;;11.88;5.70;;;17.60;99.90;;;;;;4938234;28;20499;-34
2023/06/24 04:40:32;;;;;;;9.07;5.68;;;17.60;99.90;;;;;;4941989;28;20059;-34
2023/06/24 04:42:57;;;;;;;11.52;6.72;;;17.70;99.90;;;;;;4947313;28;20055;-34
2023/06/24 04:45:23;;;;;;;9.10;5.80;;;17.70;99.90;;;;;;4946781;28;20450;-34
2023/06/24 04:47:49;;;;;;;10.50;6.00;;;17.80;99.90;;;;;;4942062;28;20043;-34
2023/06/24 04:50:15;;;;;;;9.45;6.10;;;17.80;99.90;;;;;;4944838;28;20055;-34
2023/06/24 04:52:41;;;;;;;8.40;5.85;;;17.90;99.90;;;;;;4925289;28;20134;-34
2023/06/24 04:55:07;;;;;;;9.30;5.43;;;18.00;99.90;;;;;;4944624;28;20059;-34
2023/06/24 04:57:34;;;;;;;8.35;5.40;;;18.00;99.90;;;;;;4943751;28;20055;-34
2023/06/24 05:00:00;;;;;;;8.95;4.95;;;18.10;99.90;;;;;;4942230;28;20145;-34
2023/06/24 05:02:25;;;;;;;9.50;6.10;;;18.10;99.90;;;;;;4943863;28;20134;-34
2023/06/24 05:04:52;;;;;;;6.95;4.97;;;18.20;99.90;;;;;;4942709;28;20071;-34
2023/06/24 05:07:18;;;;;;;8.48;5.40;;;18.20;99.90;;;;;;4943959;28;20154;-34
2023/06/24 05:09:49;;;;;;;8.13;5.80;;;18.30;99.90;;;;;;4948062;28;20081;-34
2023/06/24 05:12:15;;;;;;;7.90;5.60;;;18.40;99.90;;;;;;4961036;28;20051;-34
2023/06/24 05:14:40;;;;;;;9.65;6.05;;;18.40;99.90;;;;;;4962111;28;20145;-34
2023/06/24 05:17:06;;;;;;;8.68;5.00;;;18.50;99.90;;;;;;4964437;28;20141;-34
2023/06/24 05:19:32;;;;;;;8.90;6.10;;;18.50;99.90;;;;;;4961942;28;20046;-34
2023/06/24 05:21:58;;;;;;;10.52;5.82;;;18.60;99.90;;;;;;4959367;28;20062;-34
2023/06/24 05:24:23;;;;;;;9.45;5.82;;;18.60;99.90;;;;;;4965535;28;20047;-34
2023/06/24 05:26:50;;;;;;;10.90;6.35;;;18.70;99.90;;;;;;4961709;28;20081;-34
2023/06/24 05:29:17;;;;;;;11.65;6.82;;;18.70;99.90;;;;;;4963958;28;20117;-34
2023/06/24 05:31:43;;;;;;;7.43;5.15;;;18.80;99.90;;;;;;4958892;28;20144;-34
2023/06/24 05:34:09;;;;;;;13.00;7.65;;;18.80;99.90;;;;;;4961691;28;21756;-35
2023/06/24 05:36:35;;;;;;;9.07;6.10;;;18.80;99.90;;;;;;4963016;28;20051;-34
2023/06/24 05:39:01;;;;;;;10.35;6.53;;;18.90;99.90;;;;;;4961074;28;20102;-34
2023/06/24 05:41:27;;;;;;;10.40;6.97;;;19.00;99.90;;;;;;4963633;28;20055;-34
2023/06/24 05:44:09;;;;;;;11.05;6.82;;;19.00;99.90;;;;;;4959375;28;20255;-34
2023/06/24 05:46:35;;;;;;;9.88;6.35;;;19.00;99.90;;;;;;4962027;28;20046;-34
2023/06/24 05:49:01;;;;;;;11.50;6.70;;;19.00;99.90;;;;;;4957896;28;20051;-35
2023/06/24 05:51:27;;;;;;;9.30;6.95;;;19.10;99.90;;;;;;4963887;28;20057;-34
2023/06/24 05:53:53;;;;;;;9.43;6.30;;;19.10;99.90;;;;;;4963986;28;20508;-34
2023/06/24 05:56:20;;;;;;;11.02;6.40;;;19.10;99.90;;;;;;4963071;28;20051;-34
2023/06/24 05:58:46;;;;;;;9.68;6.60;;;19.20;99.90;;;;;;4967842;28;20051;-34
2023/06/24 06:01:11;;;;;;;10.93;7.20;;;19.30;99.90;;;;;;4962757;28;20105;-34
2023/06/24 06:03:37;;;;;;;9.43;6.07;;;19.30;99.90;;;;;;4967686;28;20452;-34
2023/06/24 06:06:04;;;;;;;10.48;6.47;;;19.40;99.90;;;;;;4964027;28;20066;-35
2023/06/24 06:08:30;;;;;;;10.40;6.80;;;19.40;99.90;;;;;;4968470;28;20043;-35
2023/06/24 06:10:55;;;;;;;11.18;7.60;;;19.50;99.90;;;;;;4965787;28;20385;-35
2023/06/24 06:13:21;;;;;;;9.38;5.88;;;19.50;99.90;;;;;;4966495;28;20113;-35
2023/06/24 06:15:46;;;;;;;9.52;6.32;;;19.60;99.90;;;;;;4970080;28;20051;-35
2023/06/24 06:18:12;;;;;;;10.88;7.22;;;19.70;99.90;;;;;;4972015;28;20086;-35
2023/06/24 06:20:38;;;;;;;12.60;6.18;;;19.80;99.90;;;;;;4959655;28;20088;-35
2023/06/24 06:23:04;;;;;;;9.38;6.78;;;19.90;99.90;;;;;;4953452;28;20418;-35
2023/06/24 06:25:30;;;;;;;12.13;6.70;;;20.00;99.90;;;;;;4954242;28;20053;-35
2023/06/24 06:27:55;;;;;;;11.77;6.93;;;20.10;99.90;;;;;;4962086;28;20512;-35
2023/06/24 06:30:21;;;;;;;8.95;6.18;;;20.20;99.90;;;;;;4962016;28;20124;-35
2023/06/24 06:32:47;;;;;;;12.10;7.38;;;20.30;99.90;;;;;;4961252;28;20153;-35
2023/06/24 06:35:12;;;;;;;11.02;6.50;;;20.30;99.90;;;;;;4963538;28;20086;-35
2023/06/24 06:37:38;;;;;;;11.63;7.18;;;20.40;99.90;;;;;;4963628;28;20085;-35
2023/06/24 06:40:04;;;;;;;8.88;5.60;;;20.50;99.90;;;;;;4961845;28;20502;-35
2023/06/24 06:42:30;;;;;;;7.70;5.50;;;20.70;99.90;;;;;;4966521;28;20813;-35
2023/06/24 06:44:55;;;;;;;7.90;4.88;;;20.90;99.90;;;;;;4966195;28;20054;-35
2023/06/24 06:47:21;;;;;;;8.73;6.15;;;21.10;99.90;;;;;;4965713;28;20075;-35
2023/06/24 06:49:47;;;;;;;8.98;4.53;;;21.40;99.90;;;;;;4966323;28;20544;-35
2023/06/24 06:52:12;;;;;;;7.57;4.80;;;21.60;99.90;;;;;;4963839;28;20059;-35
2023/06/24 06:54:38;;;;;;;7.18;4.22;;;21.60;99.90;;;;;;4962601;28;20046;-35
2023/06/24 06:57:04;;;;;;;7.50;3.95;;;21.70;99.90;;;;;;4958244;28;20086;-35
2023/06/24 06:59:30;;;;;;;6.15;3.75;;;21.70;99.90;;;;;;4956380;28;20078;-35
2023/06/24 07:01:56;;;;;;;5.90;2.97;;;21.60;99.90;;;;;;4960326;28;20150;-35
2023/06/24 07:04:22;;;;;;;6.00;3.25;;;21.60;99.90;;;;;;4961833;28;20074;-35
2023/06/24 07:06:48;;;;;;;5.40;2.92;;;21.60;99.90;;;;;;4956279;28;20051;-35
2023/06/24 07:09:14;;;;;;;6.47;4.15;;;21.70;99.90;;;;;;4961821;28;20066;-35
2023/06/24 07:11:43;;;;;;;5.75;3.38;;;21.80;99.90;;;;;;4963336;28;20100;-35
2023/06/24 07:14:09;;;;;;;5.78;3.10;;;22.00;99.90;;;;;;4957113;28;20059;-35
2023/06/24 07:16:35;;;;;;;5.25;3.17;;;22.20;99.90;;;;;;4966207;28;20113;-35
2023/06/24 07:19:01;;;;;;;6.20;4.15;;;22.30;99.90;;;;;;4963236;28;20106;-35
2023/06/24 07:21:27;;;;;;;10.68;4.68;;;22.50;99.90;;;;;;4970047;28;20709;-35
2023/06/24 07:23:52;;;;;;;5.20;3.35;;;22.60;99.90;;;;;;4960794;28;20058;-34
2023/06/24 07:26:18;;;;;;;5.82;3.75;;;22.60;99.90;;;;;;4963491;28;20778;-34
2023/06/24 07:28:43;;;;;;;6.57;4.47;;;22.70;99.90;;;;;;4963170;28;20054;-34
2023/06/24 07:31:09;;;;;;;6.95;4.50;;;22.80;99.90;;;;;;4960336;28;20059;-34
2023/06/24 07:33:35;;;;;;;8.48;4.40;;;22.80;99.90;;;;;;4963782;28;20093;-34
2023/06/24 07:36:01;;;;;;;8.48;4.30;;;22.70;99.90;;;;;;4960005;28;20065;-34
2023/06/24 07:38:28;;;;;;;5.88;4.10;;;22.70;99.90;;;;;;4959901;28;20411;-34
2023/06/24 07:40:54;;;;;;;5.78;3.85;;;22.60;99.90;;;;;;4960273;28;20060;-34
2023/06/24 07:43:20;;;;;;;8.57;4.65;;;22.60;99.90;;;;;;4946761;28;20047;-34
2023/06/24 07:45:45;;;;;;;10.07;4.28;;;22.60;99.90;;;;;;4957815;28;20047;-34
2023/06/24 07:48:11;;;;;;;6.40;4.15;;;22.60;99.90;;;;;;4958408;28;20102;-34
2023/06/24 07:50:38;;;;;;;7.32;4.20;;;22.50;99.90;;;;;;4958181;28;20050;-34
2023/06/24 07:53:05;;;;;;;7.25;4.13;;;22.60;99.90;;;;;;4964805;28;20050;-34
2023/06/24 07:55:31;;;;;;;7.75;3.63;;;22.50;99.90;;;;;;4963089;28;20145;-34
2023/06/24 07:57:58;;;;;;;9.60;3.63;;;22.60;99.90;;;;;;4962467;28;20055;-34
2023/06/24 08:00:24;;;;;;;7.45;4.18;;;22.60;99.90;;;;;;4963860;28;20975;-34
2023/06/24 08:02:51;;;;;;;7.70;3.90;;;22.70;99.90;;;;;;4962218;28;20059;-34
2023/06/24 08:05:20;;;;;;;5.30;3.28;;;22.80;99.90;;;;;;4958206;28;20156;-34
2023/06/24 08:07:45;;;;;;;8.23;3.47;;;22.80;99.90;;;;;;4955057;28;20062;-34
2023/06/24 08:10:11;;;;;;;10.00;4.10;;;22.80;99.90;;;;;;4962341;28;20204;-34
2023/06/24 08:12:37;;;;;;;7.43;3.63;;;22.90;99.90;;;;;;4959497;28;20055;-34
2023/06/24 08:15:03;;;;;;;7.00;3.25;;;22.80;99.90;;;;;;4961916;28;20042;-34
2023/06/24 08:17:29;;;;;;;6.85;3.83;;;22.70;99.90;;;;;;4960622;28;20504;-35
2023/06/24 08:19:54;;;;;;;7.22;2.85;;;22.70;99.90;;;;;;4960017;28;20137;-35
2023/06/24 08:22:20;;;;;;;5.30;3.33;;;22.70;99.90;;;;;;4963265;28;20054;-35
2023/06/24 08:24:46;;;;;;;7.72;2.63;;;22.90;99.90;;;;;;4967099;28;20054;-34
2023/06/24 08:27:11;;;;;;;6.80;3.40;;;23.00;99.90;;;;;;4961780;28;20481;-34
2023/06/24 08:29:37;;;;;;;6.35;3.03;;;23.20;99.90;;;;;;4964443;28;20054;-35
2023/06/24 08:32:04;;;;;;;4.72;2.22;;;23.30;99.90;;;;;;4960209;28;20055;-35
2023/06/24 08:34:30;;;;;;;5.80;2.13;;;23.40;99.90;;;;;;4962961;28;20130;-34
2023/06/24 08:36:56;;;;;;;3.72;2.15;;;23.50;99.90;;;;;;4965281;28;20053;-35
2023/06/24 08:39:21;;;;;;;4.30;2.13;;;23.60;99.90;;;;;;4940880;28;20393;-35
2023/06/24 08:41:47;;;;;;;4.53;2.10;;;23.70;99.90;;;;;;4960253;28;20409;-35
2023/06/24 08:44:12;;;;;;;4.80;2.50;;;23.80;99.90;;;;;;4957179;28;20057;-35
2023/06/24 08:46:38;;;;;;;3.25;1.80;;;23.90;99.90;;;;;;4962370;28;20061;-35
2023/06/24 08:49:27;;;;;;;3.90;2.10;;;24.00;99.90;;;;;;4958688;28;20055;-35
2023/06/24 08:52:18;;;;;;;4.78;2.65;;;24.20;99.90;;;;;;4960956;28;20057;-35
2023/06/24 08:54:54;;;;;;;4.07;2.25;;;24.30;99.90;;;;;;4959147;28;20142;-35
2023/06/24 08:57:20;;;;;;;3.58;2.35;;;24.40;99.90;;;;;;4961303;28;20047;-35
2023/06/24 08:59:46;;;;;;;5.00;2.65;;;24.40;99.90;;;;;;4963491;28;20061;-35
2023/06/24 09:02:13;;;;;;;5.18;3.05;;;24.60;99.90;;;;;;4950490;28;20058;-35
2023/06/24 09:04:40;;;;;;;4.75;2.63;;;24.80;99.90;;;;;;4959603;28;20153;-35
2023/06/24 09:07:05;;;;;;;4.93;2.28;;;24.80;99.90;;;;;;4958179;28;20138;-34
2023/06/24 09:09:31;;;;;;;5.70;2.40;;;24.90;99.90;;;;;;4960439;28;20683;-34
2023/06/24 09:12:01;;;;;;;5.10;2.88;;;25.00;99.90;;;;;;4956781;28;20047;-34
2023/06/24 09:14:29;;;;;;;4.60;2.38;;;25.20;99.90;;;;;;4960814;28;20472;-34
2023/06/24 09:16:56;;;;;;;4.57;2.85;;;25.30;99.90;;;;;;4959190;28;20129;-34
2023/06/24 09:19:23;;;;;;;5.55;2.88;;;25.40;99.90;;;;;;4960800;28;20063;-34
2023/06/24 09:21:51;;;;;;;4.55;2.38;;;25.40;99.90;;;;;;4961979;28;20065;-34
2023/06/24 09:24:17;;;;;;;4.40;2.63;;;25.40;99.90;;;;;;4963278;28;20058;-35
2023/06/24 09:26:46;;;;;;;5.95;2.67;;;25.50;99.90;;;;;;4963775;28;20066;-35
2023/06/24 09:29:14;;;;;;;3.85;2.20;;;25.40;99.90;;;;;;4959535;28;20047;-35
2023/06/24 09:31:52;;;;;;;4.47;2.22;;;25.30;99.90;;;;;;4960704;28;20054;-35
2023/06/24 09:34:19;;;;;;;6.88;2.50;;;25.30;99.90;;;;;;4966068;28;20047;-35
2023/06/24 09:36:50;;;;;;;3.70;1.90;;;25.30;99.90;;;;;;4962985;28;20065;-35
2023/06/24 09:39:16;;;;;;;5.72;2.47;;;25.30;99.90;;;;;;4942197;28;20164;-35
2023/06/24 09:41:42;;;;;;;8.23;2.42;;;25.30;99.90;;;;;;4965592;28;20141;-35
2023/06/24 09:44:11;;;;;;;4.35;2.30;;;25.50;99.90;;;;;;4962002;28;20043;-35
2023/06/24 09:46:38;;;;;;;4.55;2.75;;;25.60;99.90;;;;;;4959516;28;20054;-34
2023/06/24 09:49:06;;;;;;;4.97;2.45;;;25.80;99.90;;;;;;4961620;28;20519;-35
2023/06/24 09:51:39;;;;;;;6.63;3.13;;;25.90;99.90;;;;;;4959049;28;20062;-34
2023/06/24 09:54:09;;;;;;;5.55;2.80;;;26.00;99.90;;;;;;4960634;28;20440;-35
2023/06/24 09:56:37;;;;;;;5.82;3.13;;;26.10;99.90;;;;;;4957990;28;20494;-35
2023/06/24 09:59:05;;;;;;;6.05;3.10;;;26.20;99.90;;;;;;4966611;28;20098;-35
2023/06/24 10:01:36;;;;;;;5.25;2.88;;;26.30;99.90;;;;;;4965325;28;20068;-35
2023/06/24 10:04:03;;;;;;;5.88;3.35;;;26.30;99.90;;;;;;4962648;28;20050;-34
2023/06/24 10:06:29;;;;;;;8.23;2.97;;;26.40;99.90;;;;;;4959859;28;20086;-35
2023/06/24 10:08:55;;;;;;;5.30;3.42;;;26.50;99.90;;;;;;4963950;28;20517;-35
2023/06/24 10:11:21;;;;;;;5.80;3.10;;;26.50;99.90;;;;;;4963764;28;20059;-35
2023/06/24 10:13:47;;;;;;;6.32;3.60;;;26.60;99.90;;;;;;4964192;28;20073;-35
2023/06/24 10:16:15;;;;;;;4.57;2.90;;;26.60;99.90;;;;;;4965490;28;20424;-35
2023/06/24 10:18:41;;;;;;;4.20;2.83;;;26.70;99.90;;;;;;4963731;28;20791;-36
2023/06/24 10:21:08;;;;;;;4.70;3.05;;;26.80;99.90;;;;;;4959213;28;20050;-35
2023/06/24 10:23:59;;;;;;;5.35;2.95;;;26.90;99.90;;;;;;4961598;28;20512;-34
2023/06/24 10:26:29;;;;;;;5.72;3.08;;;26.90;99.90;;;;;;4961261;28;20059;-35
2023/06/24 10:29:07;;;;;;;5.00;3.10;;;27.00;99.90;;;;;;4965006;28;20047;-35
2023/06/24 10:31:44;;;;;;;5.82;3.47;;;27.10;99.90;;;;;;4960215;28;20117;-34
2023/06/24 10:34:34;;;;;;;4.05;2.78;;;27.20;99.90;;;;;;4965883;28;20063;-34
2023/06/24 10:37:06;;;;;;;3.80;2.55;;;27.20;99.90;;;;;;4965104;28;20137;-34
2023/06/24 10:39:58;;;;;;;4.65;2.05;;;27.20;99.90;;;;;;4959349;28;20063;-35
2023/06/24 10:42:30;;;;;;;3.20;2.07;;;27.20;99.90;;;;;;4966486;28;20063;-35
2023/06/24 10:45:08;;;;;;;6.18;2.78;;;27.40;99.90;;;;;;4960281;28;20058;-35
2023/06/24 10:47:35;;;;;;;5.35;3.10;;;27.40;99.90;;;;;;4955807;28;20078;-35
2023/06/24 10:50:00;;;;;;;5.00;3.00;;;27.50;99.90;;;;;;4966482;28;20141;-35
2023/06/24 10:52:26;;;;;;;4.53;2.78;;;27.60;99.90;;;;;;4963053;28;20061;-35
2023/06/24 10:54:53;;;;;;;5.53;2.70;;;27.60;99.90;;;;;;4962152;28;20086;-35
2023/06/24 10:57:23;;;;;;;4.68;3.08;;;27.70;99.90;;;;;;4958300;28;20057;-34
2023/06/24 10:59:50;;;;;;;5.05;2.85;;;27.70;99.90;;;;;;4959929;28;20055;-35
2023/06/24 11:02:18;;;;;;;4.13;2.40;;;27.80;99.90;;;;;;4963973;28;20653;-35
2023/06/24 11:04:54;;;;;;;4.75;3.03;;;27.70;99.90;;;;;;4967157;28;20055;-34
2023/06/24 11:07:25;;;;;;;4.20;2.30;;;27.70;99.90;;;;;;4960625;28;20155;-34
2023/06/24 11:09:50;;;;;;;4.60;2.50;;;27.70;99.90;;;;;;4955619;28;20063;-35
2023/06/24 11:12:16;;;;;;;3.00;2.25;;;27.80;99.90;;;;;;4964120;28;20484;-34
2023/06/24 11:14:42;;;;;;;3.72;2.10;;;27.80;99.90;;;;;;4964359;28;20062;-34
2023/06/24 11:17:08;;;;;;;4.80;2.90;;;27.90;99.90;;;;;;4963398;28;20058;-34
2023/06/24 11:19:38;;;;;;;4.22;2.75;;;28.00;99.90;;;;;;4963226;28;20055;-35
2023/06/24 11:22:05;;;;;;;4.18;3.00;;;28.10;99.90;;;;;;4957791;28;20058;-35
2023/06/24 11:24:30;;;;;;;4.25;2.72;;;28.20;99.90;;;;;;4952220;28;20078;-35
2023/06/24 11:26:56;;;;;;;4.10;3.20;;;28.30;99.90;;;;;;4961141;28;20046;-35
2023/06/24 11:29:22;;;;;;;9.25;3.70;;;28.50;99.90;;;;;;4960128;28;20050;-35
2023/06/24 11:31:49;;;;;;;7.07;3.17;;;28.50;99.90;;;;;;4962686;28;20077;-35
2023/06/24 11:34:15;;;;;;;5.15;2.78;;;28.50;99.90;;;;;;4957159;28;20054;-35
2023/06/24 11:36:41;;;;;;;3.60;2.40;;;28.50;99.90;;;;;;4963374;28;20098;-35
2023/06/24 11:39:06;;;;;;;3.72;2.60;;;28.60;99.90;;;;;;4953641;28;20051;-35
2023/06/24 11:41:32;;;;;;;5.53;3.33;;;28.60;99.90;;;;;;4960809;28;20053;-36
2023/06/24 11:43:59;;;;;;;6.15;3.85;;;28.70;99.90;;;;;;4962200;28;20051;-34
2023/06/24 11:46:33;;;;;;;4.10;2.75;;;28.80;99.90;;;;;;4961304;28;20113;-35
2023/06/24 11:49:09;;;;;;;3.70;2.28;;;28.80;99.90;;;;;;4962385;28;20142;-34
2023/06/24 11:51:35;;;;;;;3.35;2.20;;;28.90;99.90;;;;;;4963193;28;20058;-34
2023/06/24 11:54:03;;;;;;;5.60;2.55;;;29.00;99.90;;;;;;4953885;28;20058;-35
2023/06/24 11:56:39;;;;;;;5.80;2.45;;;29.20;99.90;;;;;;4960827;28;20109;-35
2023/06/24 11:59:06;;;;;;;4.40;2.63;;;29.40;99.90;;;;;;4963053;28;20715;-36
2023/06/24 12:01:32;;;;;;;5.15;2.53;;;29.40;99.90;;;;;;4963635;28;20110;-36
2023/06/24 12:04:09;;;;;;;2.65;1.67;;;29.20;99.90;;;;;;4962726;28;20058;-36
2023/06/24 12:06:34;;;;;;;2.60;2.08;;;29.10;99.90;;;;;;4953611;28;20676;-35
2023/06/24 12:09:00;;;;;;;2.95;1.80;;;29.00;99.90;;;;;;4958305;28;20074;-35
2023/06/24 12:11:25;;;;;;;5.38;2.22;;;28.90;99.90;;;;;;4955824;28;20063;-35
2023/06/24 12:13:51;;;;;;;3.92;2.45;;;28.70;99.90;;;;;;4960298;28;20148;-36
2023/06/24 12:16:17;;;;;;;6.18;2.22;;;28.60;99.90;;;;;;4949882;28;20132;-36
2023/06/24 12:18:42;;;;;;;4.68;2.05;;;28.40;99.90;;;;;;4956879;28;20050;-36
2023/06/24 12:21:08;;;;;;;2.95;2.20;;;28.30;99.90;;;;;;4966611;28;20146;-36
2023/06/24 12:23:34;;;;;;;2.88;2.08;;;28.20;99.90;;;;;;4962191;28;20054;-36
2023/06/24 12:25:59;;;;;;;3.38;2.30;;;28.20;99.90;;;;;;4962538;28;20171;-36
2023/06/24 12:28:25;;;;;;;4.28;2.55;;;28.20;99.90;;;;;;4965331;28;20642;-36
2023/06/24 12:30:51;;;;;;;3.20;2.25;;;28.20;99.90;;;;;;4963711;28;20054;-35
2023/06/24 12:33:18;;;;;;;4.07;2.40;;;28.40;99.90;;;;;;4959447;28;20142;-35
2023/06/24 12:35:44;;;;;;;2.90;1.88;;;28.80;99.90;;;;;;4965411;28;20081;-35
2023/06/24 12:38:10;;;;;;;4.70;2.08;;;29.10;99.90;;;;;;4959574;28;20070;-35
2023/06/24 12:40:35;;;;;;;3.95;2.13;;;29.20;99.90;;;;;;4961384;28;20070;-36
2023/06/24 12:43:01;;;;;;;3.60;1.83;;;29.30;99.90;;;;;;4959631;28;20051;-35
2023/06/24 12:45:27;;;;;;;5.53;1.83;;;29.40;99.90;;;;;;4960761;28;20046;-35
2023/06/24 12:47:52;;;;;;;4.78;1.80;;;29.50;99.90;;;;;;4961211;28;20051;-36